sensor_id;sensor_type;location;lat;lon;timestamp;temperature;humidity
53752;DHT22;41095;53.090;6.692;2023-07-22T00:00:44;13.80;99.90
53752;DHT22;41095;53.090;6.692;2023-07-22T00:03:09;13.80;99.90
53752;DHT22;41095;53.090;6.692;2023-07-22T00:05:35;13.90;99.90
53752;DHT22;41095;53.090;6.692;2023-07-22T00:08:01;13.90;99.90
53752;DHT22;41095;53.090;6.692;2023-07-22T00:10:27;13.90;99.90
53752;DHT22;41095;53.090;6.692;2023-07-22T00:12:53;13.90;99.90
53752;DHT22;41095;53.090;6.692;2023-07-22T00:15:18;14.00;99.90
53752;DHT22;41095;53.090;6.692;2023-07-22T00:17:46;14.00;99.90
53752;DHT22;41095;53.090;6.692;2023-07-22T00:20:11;14.00;99.90
53752;DHT22;41095;53.090;6.692;2023-07-22T00:22:38;14.00;99.90
53752;DHT22;41095;53.090;6.692;2023-07-22T00:25:07;14.00;99.90
53752;DHT22;41095;53.090;6.692;2023-07-22T00:27:33;14.00;99.90
53752;DHT22;41095;53.090;6.692;2023-07-22T00:29:59;14.00;99.90
53752;DHT22;41095;53.090;6.692;2023-07-22T00:32:24;13.90;99.90
53752;DHT22;41095;53.090;6.692;2023-07-22T00:34:50;13.90;99.90
53752;DHT22;41095;53.090;6.692;2023-07-22T00:37:16;13.80;99.90
53752;DHT22;41095;53.090;6.692;2023-07-22T00:39:42;13.80;99.90
53752;DHT22;41095;53.090;6.692;2023-07-22T00:42:08;13.80;99.90
53752;DHT22;41095;53.090;6.692;2023-07-22T00:44:33;13.70;99.90
53752;DHT22;41095;53.090;6.692;2023-07-22T00:46:59;13.70;99.90
53752;DHT22;41095;53.090;6.692;2023-07-22T00:49:26;13.60;99.90
53752;DHT22;41095;53.090;6.692;2023-07-22T00:51:53;13.60;99.90
53752;DHT22;41095;53.090;6.692;2023-07-22T00:54:18;13.60;99.90
53752;DHT22;41095;53.090;6.692;2023-07-22T00:56:44;13.50;99.90
53752;DHT22;41095;53.090;6.692;2023-07-22T00:59:12;13.50;99.90
53752;DHT22;41095;53.090;6.692;2023-07-22T01:01:40;13.50;99.90
53752;DHT22;41095;53.090;6.692;2023-07-22T01:04:05;13.50;99.90
53752;DHT22;41095;53.090;6.692;2023-07-22T01:06:34;13.50;99.90
53752;DHT22;41095;53.090;6.692;2023-07-22T01:09:00;13.40;99.90
53752;DHT22;41095;53.090;6.692;2023-07-22T01:11:26;13.50;99.90
53752;DHT22;41095;53.090;6.692;2023-07-22T01:13:52;13.40;99.90
53752;DHT22;41095;53.090;6.692;2023-07-22T01:16:24;13.40;99.90
53752;DHT22;41095;53.090;6.692;2023-07-22T01:18:50;13.30;99.90
53752;DHT22;41095;53.090;6.692;2023-07-22T01:21:17;13.30;99.90
53752;DHT22;41095;53.090;6.692;2023-07-22T01:23:43;13.30;99.90
53752;DHT22;41095;53.090;6.692;2023-07-22T01:26:09;13.30;99.90
53752;DHT22;41095;53.090;6.692;2023-07-22T01:28:35;13.30;99.90
53752;DHT22;41095;53.090;6.692;2023-07-22T01:31:01;13.30;99.90
53752;DHT22;41095;53.090;6.692;2023-07-22T01:33:27;13.30;99.90
53752;DHT22;41095;53.090;6.692;2023-07-22T01:35:53;13.30;99.90
53752;DHT22;41095;53.090;6.692;2023-07-22T01:38:19;13.40;99.90
53752;DHT22;41095;53.090;6.692;2023-07-22T01:40:45;13.30;99.90
53752;DHT22;41095;53.090;6.692;2023-07-22T01:43:10;13.30;99.90
53752;DHT22;41095;53.090;6.692;2023-07-22T01:45:36;13.30;99.90
53752;DHT22;41095;53.090;6.692;2023-07-22T01:48:04;13.20;99.90
53752;DHT22;41095;53.090;6.692;2023-07-22T01:50:29;13.20;99.90
53752;DHT22;41095;53.090;6.692;2023-07-22T01:52:55;13.20;99.90
53752;DHT22;41095;53.090;6.692;2023-07-22T01:55:21;13.20;99.90
53752;DHT22;41095;53.090;6.692;2023-07-22T01:57:47;13.10;99.90
53752;DHT22;41095;53.090;6.692;2023-07-22T02:00:13;13.10;99.90
53752;DHT22;41095;53.090;6.692;2023-07-22T02:02:43;13.00;99.90
53752;DHT22;41095;53.090;6.692;2023-07-22T02:05:09;13.00;99.90
53752;DHT22;41095;53.090;6.692;2023-07-22T02:07:36;12.90;99.90
53752;DHT22;41095;53.090;6.692;2023-07-22T02:10:01;12.90;99.90
53752;DHT22;41095;53.090;6.692;2023-07-22T02:12:27;12.90;99.90
53752;DHT22;41095;53.090;6.692;2023-07-22T02:14:53;12.80;99.90
53752;DHT22;41095;53.090;6.692;2023-07-22T02:17:19;12.70;99.90
53752;DHT22;41095;53.090;6.692;2023-07-22T02:19:46;12.70;99.90
53752;DHT22;41095;53.090;6.692;2023-07-22T02:22:11;12.60;99.90
53752;DHT22;41095;53.090;6.692;2023-07-22T02:24:38;12.60;99.90
53752;DHT22;41095;53.090;6.692;2023-07-22T02:27:04;12.60;99.90
53752;DHT22;41095;53.090;6.692;2023-07-22T02:29:30;12.60;99.90
53752;DHT22;41095;53.090;6.692;2023-07-22T02:31:59;12.60;99.90
53752;DHT22;41095;53.090;6.692;2023-07-22T02:34:24;12.60;99.90
53752;DHT22;41095;53.090;6.692;2023-07-22T02:36:50;12.60;99.90
53752;DHT22;41095;53.090;6.692;2023-07-22T02:39:16;12.50;99.90
53752;DHT22;41095;53.090;6.692;2023-07-22T02:41:41;12.50;99.90
53752;DHT22;41095;53.090;6.692;2023-07-22T02:44:07;12.50;99.90
53752;DHT22;41095;53.090;6.692;2023-07-22T02:46:33;12.40;99.90
53752;DHT22;41095;53.090;6.692;2023-07-22T02:48:59;12.40;99.90
53752;DHT22;41095;53.090;6.692;2023-07-22T02:51:25;12.40;99.90
53752;DHT22;41095;53.090;6.692;2023-07-22T02:53:50;12.30;99.90
53752;DHT22;41095;53.090;6.692;2023-07-22T02:56:16;12.30;99.90
53752;DHT22;41095;53.090;6.692;2023-07-22T02:58:42;12.20;99.90
53752;DHT22;41095;53.090;6.692;2023-07-22T03:01:08;12.20;99.90
53752;DHT22;41095;53.090;6.692;2023-07-22T03:03:34;12.20;99.90
53752;DHT22;41095;53.090;6.692;2023-07-22T03:06:03;12.10;99.90
53752;DHT22;41095;53.090;6.692;2023-07-22T03:08:33;12.10;99.90
53752;DHT22;41095;53.090;6.692;2023-07-22T03:10:59;12.00;99.90
53752;DHT22;41095;53.090;6.692;2023-07-22T03:13:24;11.90;99.90
53752;DHT22;41095;53.090;6.692;2023-07-22T03:15:55;11.90;99.90
53752;DHT22;41095;53.090;6.692;2023-07-22T03:18:21;11.90;99.90
53752;DHT22;41095;53.090;6.692;2023-07-22T03:20:46;11.90;99.90
53752;DHT22;41095;53.090;6.692;2023-07-22T03:23:12;11.80;99.90
53752;DHT22;41095;53.090;6.692;2023-07-22T03:25:38;11.80;99.90
53752;DHT22;41095;53.090;6.692;2023-07-22T03:28:05;11.80;99.90
53752;DHT22;41095;53.090;6.692;2023-07-22T03:30:31;11.80;99.90
53752;DHT22;41095;53.090;6.692;2023-07-22T03:32:57;11.80;99.90
53752;DHT22;41095;53.090;6.692;2023-07-22T03:35:23;11.80;99.90
53752;DHT22;41095;53.090;6.692;2023-07-22T03:37:48;11.80;99.90
53752;DHT22;41095;53.090;6.692;2023-07-22T03:40:14;11.80;99.90
53752;DHT22;41095;53.090;6.692;2023-07-22T03:42:50;11.80;99.90
53752;DHT22;41095;53.090;6.692;2023-07-22T03:45:17;11.90;99.90
53752;DHT22;41095;53.090;6.692;2023-07-22T03:47:44;11.90;99.90
53752;DHT22;41095;53.090;6.692;2023-07-22T03:50:11;11.90;99.90
53752;DHT22;41095;53.090;6.692;2023-07-22T03:52:36;12.00;99.90
53752;DHT22;41095;53.090;6.692;2023-07-22T03:55:03;12.00;99.90
53752;DHT22;41095;53.090;6.692;2023-07-22T03:57:29;12.10;99.90
53752;DHT22;41095;53.090;6.692;2023-07-22T03:59:55;12.10;99.90
53752;DHT22;41095;53.090;6.692;2023-07-22T04:02:21;12.10;99.90
53752;DHT22;41095;53.090;6.692;2023-07-22T04:04:47;12.30;99.90
53752;DHT22;41095;53.090;6.692;2023-07-22T04:07:13;12.30;99.90
53752;DHT22;41095;53.090;6.692;2023-07-22T04:09:39;12.40;99.90
53752;DHT22;41095;53.090;6.692;2023-07-22T04:12:06;12.50;99.90
53752;DHT22;41095;53.090;6.692;2023-07-22T04:14:32;12.50;99.90
53752;DHT22;41095;53.090;6.692;2023-07-22T04:16:58;12.60;99.90
53752;DHT22;41095;53.090;6.692;2023-07-22T04:19:24;12.60;99.90
53752;DHT22;41095;53.090;6.692;2023-07-22T04:21:49;12.70;99.90
53752;DHT22;41095;53.090;6.692;2023-07-22T04:24:15;12.80;99.90
53752;DHT22;41095;53.090;6.692;2023-07-22T04:26:45;12.80;99.90
53752;DHT22;41095;53.090;6.692;2023-07-22T04:29:10;12.90;99.90
53752;DHT22;41095;53.090;6.692;2023-07-22T04:31:38;12.90;99.90
53752;DHT22;41095;53.090;6.692;2023-07-22T04:34:03;13.00;99.90
53752;DHT22;41095;53.090;6.692;2023-07-22T04:36:30;13.00;99.90
53752;DHT22;41095;53.090;6.692;2023-07-22T04:38:56;13.00;99.90
53752;DHT22;41095;53.090;6.692;2023-07-22T04:41:22;13.10;99.90
53752;DHT22;41095;53.090;6.692;2023-07-22T04:43:48;13.10;99.90
53752;DHT22;41095;53.090;6.692;2023-07-22T04:46:13;13.10;99.90
53752;DHT22;41095;53.090;6.692;2023-07-22T04:48:39;13.20;99.90
53752;DHT22;41095;53.090;6.692;2023-07-22T04:51:05;13.20;99.90
53752;DHT22;41095;53.090;6.692;2023-07-22T04:53:30;13.20;99.90
53752;DHT22;41095;53.090;6.692;2023-07-22T04:55:56;13.30;99.90
53752;DHT22;41095;53.090;6.692;2023-07-22T04:58:22;13.30;99.90
53752;DHT22;41095;53.090;6.692;2023-07-22T05:00:48;13.40;99.90
53752;DHT22;41095;53.090;6.692;2023-07-22T05:03:17;13.40;99.90
53752;DHT22;41095;53.090;6.692;2023-07-22T05:05:43;13.40;99.90
53752;DHT22;41095;53.090;6.692;2023-07-22T05:08:10;13.50;99.90
53752;DHT22;41095;53.090;6.692;2023-07-22T05:10:39;13.60;99.90
53752;DHT22;41095;53.090;6.692;2023-07-22T05:13:05;13.60;99.90
53752;DHT22;41095;53.090;6.692;2023-07-22T05:15:30;13.70;99.90
53752;DHT22;41095;53.090;6.692;2023-07-22T05:17:56;13.70;99.90
53752;DHT22;41095;53.090;6.692;2023-07-22T05:20:22;13.70;99.90
53752;DHT22;41095;53.090;6.692;2023-07-22T05:22:48;13.80;99.90
53752;DHT22;41095;53.090;6.692;2023-07-22T05:25:14;13.80;99.90
53752;DHT22;41095;53.090;6.692;2023-07-22T05:27:40;13.90;99.90
53752;DHT22;41095;53.090;6.692;2023-07-22T05:30:06;13.90;99.90
53752;DHT22;41095;53.090;6.692;2023-07-22T05:32:32;14.00;99.90
53752;DHT22;41095;53.090;6.692;2023-07-22T05:34:58;14.00;99.90
53752;DHT22;41095;53.090;6.692;2023-07-22T05:37:24;14.10;99.90
53752;DHT22;41095;53.090;6.692;2023-07-22T05:39:50;14.20;99.90
53752;DHT22;41095;53.090;6.692;2023-07-22T05:42:17;14.30;99.90
53752;DHT22;41095;53.090;6.692;2023-07-22T05:44:43;14.80;99.90
53752;DHT22;41095;53.090;6.692;2023-07-22T05:47:09;14.40;99.90
53752;DHT22;41095;53.090;6.692;2023-07-22T05:49:34;14.60;99.90
53752;DHT22;41095;53.090;6.692;2023-07-22T05:52:00;14.80;99.90
53752;DHT22;41095;53.090;6.692;2023-07-22T05:54:26;14.90;99.90
53752;DHT22;41095;53.090;6.692;2023-07-22T05:56:51;15.00;99.90
53752;DHT22;41095;53.090;6.692;2023-07-22T05:59:17;15.10;99.90
53752;DHT22;41095;53.090;6.692;2023-07-22T06:01:43;15.20;99.90
53752;DHT22;41095;53.090;6.692;2023-07-22T06:04:08;15.30;99.90
53752;DHT22;41095;53.090;6.692;2023-07-22T06:06:35;15.40;99.90
53752;DHT22;41095;53.090;6.692;2023-07-22T06:09:01;15.50;99.90
53752;DHT22;41095;53.090;6.692;2023-07-22T06:11:27;15.70;99.90
53752;DHT22;41095;53.090;6.692;2023-07-22T06:13:54;15.70;99.90
53752;DHT22;41095;53.090;6.692;2023-07-22T06:16:19;15.90;99.90
53752;DHT22;41095;53.090;6.692;2023-07-22T06:18:45;16.00;99.90
53752;DHT22;41095;53.090;6.692;2023-07-22T06:21:11;16.00;99.90
53752;DHT22;41095;53.090;6.692;2023-07-22T06:23:37;16.10;99.90
53752;DHT22;41095;53.090;6.692;2023-07-22T06:26:02;16.20;99.90
53752;DHT22;41095;53.090;6.692;2023-07-22T06:28:28;16.30;99.90
53752;DHT22;41095;53.090;6.692;2023-07-22T06:30:54;16.50;99.90
53752;DHT22;41095;53.090;6.692;2023-07-22T06:33:19;16.60;99.90
53752;DHT22;41095;53.090;6.692;2023-07-22T06:35:46;16.80;99.90
53752;DHT22;41095;53.090;6.692;2023-07-22T06:38:11;17.00;99.90
53752;DHT22;41095;53.090;6.692;2023-07-22T06:40:37;17.20;99.90
53752;DHT22;41095;53.090;6.692;2023-07-22T06:43:03;17.40;99.90
53752;DHT22;41095;53.090;6.692;2023-07-22T06:45:28;17.40;99.90
53752;DHT22;41095;53.090;6.692;2023-07-22T06:47:54;17.40;99.90
53752;DHT22;41095;53.090;6.692;2023-07-22T06:50:20;17.60;99.90
53752;DHT22;41095;53.090;6.692;2023-07-22T06:52:45;17.90;99.90
53752;DHT22;41095;53.090;6.692;2023-07-22T06:55:11;18.40;99.90
53752;DHT22;41095;53.090;6.692;2023-07-22T06:57:37;18.50;99.90
53752;DHT22;41095;53.090;6.692;2023-07-22T07:00:04;18.60;99.90
53752;DHT22;41095;53.090;6.692;2023-07-22T07:02:30;18.80;99.90
53752;DHT22;41095;53.090;6.692;2023-07-22T07:04:56;19.10;99.90
53752;DHT22;41095;53.090;6.692;2023-07-22T07:07:22;19.30;99.90
53752;DHT22;41095;53.090;6.692;2023-07-22T07:09:47;19.20;99.90
53752;DHT22;41095;53.090;6.692;2023-07-22T07:12:13;19.20;99.90
53752;DHT22;41095;53.090;6.692;2023-07-22T07:14:39;19.00;99.90
53752;DHT22;41095;53.090;6.692;2023-07-22T07:17:05;19.10;99.90
53752;DHT22;41095;53.090;6.692;2023-07-22T07:19:30;19.20;99.90
53752;DHT22;41095;53.090;6.692;2023-07-22T07:21:56;19.30;99.90
53752;DHT22;41095;53.090;6.692;2023-07-22T07:24:22;19.20;99.90
53752;DHT22;41095;53.090;6.692;2023-07-22T07:26:47;19.00;99.90
53752;DHT22;41095;53.090;6.692;2023-07-22T07:29:13;18.70;99.90
53752;DHT22;41095;53.090;6.692;2023-07-22T07:31:39;18.60;99.90
53752;DHT22;41095;53.090;6.692;2023-07-22T07:34:05;18.40;99.90
53752;DHT22;41095;53.090;6.692;2023-07-22T07:36:32;18.20;99.90
53752;DHT22;41095;53.090;6.692;2023-07-22T07:38:57;18.20;99.90
53752;DHT22;41095;53.090;6.692;2023-07-22T07:41:23;18.10;99.90
53752;DHT22;41095;53.090;6.692;2023-07-22T07:43:49;18.10;99.90
53752;DHT22;41095;53.090;6.692;2023-07-22T07:48:47;18.40;99.90
53752;DHT22;41095;53.090;6.692;2023-07-22T07:51:14;18.60;99.90
53752;DHT22;41095;53.090;6.692;2023-07-22T07:53:44;18.80;99.90
53752;DHT22;41095;53.090;6.692;2023-07-22T07:56:10;19.10;99.90
53752;DHT22;41095;53.090;6.692;2023-07-22T07:58:37;19.30;99.90
53752;DHT22;41095;53.090;6.692;2023-07-22T08:01:03;19.80;99.90
53752;DHT22;41095;53.090;6.692;2023-07-22T08:03:29;20.40;99.90
53752;DHT22;41095;53.090;6.692;2023-07-22T08:05:55;21.00;99.90
53752;DHT22;41095;53.090;6.692;2023-07-22T08:08:21;21.40;99.90
53752;DHT22;41095;53.090;6.692;2023-07-22T08:10:47;21.50;99.90
53752;DHT22;41095;53.090;6.692;2023-07-22T08:13:22;21.70;99.90
53752;DHT22;41095;53.090;6.692;2023-07-22T08:15:48;22.00;99.90
53752;DHT22;41095;53.090;6.692;2023-07-22T08:18:13;22.40;99.90
53752;DHT22;41095;53.090;6.692;2023-07-22T08:20:39;22.60;99.90
53752;DHT22;41095;53.090;6.692;2023-07-22T08:23:04;22.50;99.90
53752;DHT22;41095;53.090;6.692;2023-07-22T08:25:30;22.40;99.90
53752;DHT22;41095;53.090;6.692;2023-07-22T08:27:56;22.30;99.50
53752;DHT22;41095;53.090;6.692;2023-07-22T08:30:21;21.90;99.50
53752;DHT22;41095;53.090;6.692;2023-07-22T08:32:47;21.60;99.70
53752;DHT22;41095;53.090;6.692;2023-07-22T08:35:13;21.40;99.20
53752;DHT22;41095;53.090;6.692;2023-07-22T08:37:38;21.30;99.60
53752;DHT22;41095;53.090;6.692;2023-07-22T08:40:04;21.30;99.60
53752;DHT22;41095;53.090;6.692;2023-07-22T08:42:32;21.50;99.70
53752;DHT22;41095;53.090;6.692;2023-07-22T08:45:01;21.60;99.20
53752;DHT22;41095;53.090;6.692;2023-07-22T08:47:29;21.80;98.60
53752;DHT22;41095;53.090;6.692;2023-07-22T08:49:58;21.80;99.00
53752;DHT22;41095;53.090;6.692;2023-07-22T08:52:24;21.80;98.00
53752;DHT22;41095;53.090;6.692;2023-07-22T08:54:50;21.70;98.70
53752;DHT22;41095;53.090;6.692;2023-07-22T08:57:16;21.40;99.10
53752;DHT22;41095;53.090;6.692;2023-07-22T08:59:43;21.40;99.00
53752;DHT22;41095;53.090;6.692;2023-07-22T09:02:12;21.20;99.00
53752;DHT22;41095;53.090;6.692;2023-07-22T09:04:39;21.10;99.10
53752;DHT22;41095;53.090;6.692;2023-07-22T09:07:08;21.10;99.10
53752;DHT22;41095;53.090;6.692;2023-07-22T09:09:36;20.90;99.10
53752;DHT22;41095;53.090;6.692;2023-07-22T09:12:02;20.80;99.50
53752;DHT22;41095;53.090;6.692;2023-07-22T09:14:30;20.50;99.20
53752;DHT22;41095;53.090;6.692;2023-07-22T09:16:57;20.30;99.90
53752;DHT22;41095;53.090;6.692;2023-07-22T09:19:23;20.10;99.90
53752;DHT22;41095;53.090;6.692;2023-07-22T09:21:49;19.90;99.90
53752;DHT22;41095;53.090;6.692;2023-07-22T09:24:21;19.90;99.90
53752;DHT22;41095;53.090;6.692;2023-07-22T09:26:47;19.60;99.90
53752;DHT22;41095;53.090;6.692;2023-07-22T09:29:13;19.30;99.90
53752;DHT22;41095;53.090;6.692;2023-07-22T09:31:52;19.20;99.90
53752;DHT22;41095;53.090;6.692;2023-07-22T09:34:18;19.10;99.90
53752;DHT22;41095;53.090;6.692;2023-07-22T09:36:56;19.20;99.90
53752;DHT22;41095;53.090;6.692;2023-07-22T09:39:25;19.20;99.90
53752;DHT22;41095;53.090;6.692;2023-07-22T09:41:50;19.10;99.90
53752;DHT22;41095;53.090;6.692;2023-07-22T09:44:18;19.10;99.90
53752;DHT22;41095;53.090;6.692;2023-07-22T09:46:49;19.30;99.90
53752;DHT22;41095;53.090;6.692;2023-07-22T09:49:17;19.50;99.90
53752;DHT22;41095;53.090;6.692;2023-07-22T09:51:44;19.70;99.90
53752;DHT22;41095;53.090;6.692;2023-07-22T09:54:10;19.80;99.90
53752;DHT22;41095;53.090;6.692;2023-07-22T09:56:46;19.80;99.90
53752;DHT22;41095;53.090;6.692;2023-07-22T09:59:13;19.80;99.90
53752;DHT22;41095;53.090;6.692;2023-07-22T10:01:40;19.90;99.90
53752;DHT22;41095;53.090;6.692;2023-07-22T10:04:06;19.90;99.90
53752;DHT22;41095;53.090;6.692;2023-07-22T10:06:33;20.00;99.90
53752;DHT22;41095;53.090;6.692;2023-07-22T10:09:04;20.00;99.90
53752;DHT22;41095;53.090;6.692;2023-07-22T10:11:37;20.10;99.90
53752;DHT22;41095;53.090;6.692;2023-07-22T10:14:03;20.20;99.90
53752;DHT22;41095;53.090;6.692;2023-07-22T10:16:29;20.10;99.90
53752;DHT22;41095;53.090;6.692;2023-07-22T10:18:55;20.10;99.90
53752;DHT22;41095;53.090;6.692;2023-07-22T10:21:23;20.10;99.90
53752;DHT22;41095;53.090;6.692;2023-07-22T10:23:50;19.90;99.90
53752;DHT22;41095;53.090;6.692;2023-07-22T10:26:18;19.90;99.90
53752;DHT22;41095;53.090;6.692;2023-07-22T10:28:47;19.90;99.90
53752;DHT22;41095;53.090;6.692;2023-07-22T10:31:14;19.70;99.90
53752;DHT22;41095;53.090;6.692;2023-07-22T10:33:47;19.70;99.90
53752;DHT22;41095;53.090;6.692;2023-07-22T10:36:15;19.70;99.90
53752;DHT22;41095;53.090;6.692;2023-07-22T10:38:55;19.60;99.90
53752;DHT22;41095;53.090;6.692;2023-07-22T10:41:21;19.50;99.90
53752;DHT22;41095;53.090;6.692;2023-07-22T10:43:58;19.50;99.90
53752;DHT22;41095;53.090;6.692;2023-07-22T10:46:37;19.10;99.90
53752;DHT22;41095;53.090;6.692;2023-07-22T10:49:16;19.40;99.90
53752;DHT22;41095;53.090;6.692;2023-07-22T10:51:46;19.40;99.90
53752;DHT22;41095;53.090;6.692;2023-07-22T10:54:14;19.40;99.90
53752;DHT22;41095;53.090;6.692;2023-07-22T10:56:43;19.30;99.90
53752;DHT22;41095;53.090;6.692;2023-07-22T10:59:11;19.20;99.90
53752;DHT22;41095;53.090;6.692;2023-07-22T11:01:38;19.20;99.90
53752;DHT22;41095;53.090;6.692;2023-07-22T11:12:14;19.00;99.90
53752;DHT22;41095;53.090;6.692;2023-07-22T11:15:02;18.90;99.90
53752;DHT22;41095;53.090;6.692;2023-07-22T11:17:30;18.80;99.90
53752;DHT22;41095;53.090;6.692;2023-07-22T11:19:56;18.70;99.90
53752;DHT22;41095;53.090;6.692;2023-07-22T11:22:22;18.70;99.90
53752;DHT22;41095;53.090;6.692;2023-07-22T11:24:48;18.60;99.90
53752;DHT22;41095;53.090;6.692;2023-07-22T11:27:14;18.60;99.90
53752;DHT22;41095;53.090;6.692;2023-07-22T11:29:40;18.60;99.90
53752;DHT22;41095;53.090;6.692;2023-07-22T11:32:06;18.70;99.90
53752;DHT22;41095;53.090;6.692;2023-07-22T11:34:33;18.70;99.90
53752;DHT22;41095;53.090;6.692;2023-07-22T11:36:59;18.70;99.90
53752;DHT22;41095;53.090;6.692;2023-07-22T11:39:26;18.60;99.90
53752;DHT22;41095;53.090;6.692;2023-07-22T11:41:53;18.40;99.90
53752;DHT22;41095;53.090;6.692;2023-07-22T11:44:23;18.40;99.90
53752;DHT22;41095;53.090;6.692;2023-07-22T11:46:59;18.20;99.90
53752;DHT22;41095;53.090;6.692;2023-07-22T11:49:33;18.20;99.90
53752;DHT22;41095;53.090;6.692;2023-07-22T11:52:10;18.20;99.90
53752;DHT22;41095;53.090;6.692;2023-07-22T11:54:39;18.20;99.90
53752;DHT22;41095;53.090;6.692;2023-07-22T11:57:13;18.10;99.90
53752;DHT22;41095;53.090;6.692;2023-07-22T12:02:19;18.10;99.90
53752;DHT22;41095;53.090;6.692;2023-07-22T12:07:29;18.00;99.90
53752;DHT22;41095;53.090;6.692;2023-07-22T12:09:58;18.00;99.90
53752;DHT22;41095;53.090;6.692;2023-07-22T12:15:20;18.10;99.90
53752;DHT22;41095;53.090;6.692;2023-07-22T12:17:50;18.10;99.90
53752;DHT22;41095;53.090;6.692;2023-07-22T12:20:17;18.10;99.90
53752;DHT22;41095;53.090;6.692;2023-07-22T12:22:43;18.20;99.90
53752;DHT22;41095;53.090;6.692;2023-07-22T12:25:09;18.20;99.90
53752;DHT22;41095;53.090;6.692;2023-07-22T12:27:36;18.20;99.90
53752;DHT22;41095;53.090;6.692;2023-07-22T12:30:01;18.20;99.90
53752;DHT22;41095;53.090;6.692;2023-07-22T12:32:28;18.20;99.90
53752;DHT22;41095;53.090;6.692;2023-07-22T12:34:54;18.10;99.90
53752;DHT22;41095;53.090;6.692;2023-07-22T12:37:19;18.10;99.90
53752;DHT22;41095;53.090;6.692;2023-07-22T12:39:45;18.10;99.90
53752;DHT22;41095;53.090;6.692;2023-07-22T12:42:11;18.00;99.90
53752;DHT22;41095;53.090;6.692;2023-07-22T12:44:37;18.00;99.90
53752;DHT22;41095;53.090;6.692;2023-07-22T12:47:02;18.00;99.90
53752;DHT22;41095;53.090;6.692;2023-07-22T12:49:28;18.00;99.90
53752;DHT22;41095;53.090;6.692;2023-07-22T12:51:54;18.00;99.90
53752;DHT22;41095;53.090;6.692;2023-07-22T12:54:20;18.00;99.90
53752;DHT22;41095;53.090;6.692;2023-07-22T12:56:45;18.00;99.90
53752;DHT22;41095;53.090;6.692;2023-07-22T12:59:11;18.00;99.90
53752;DHT22;41095;53.090;6.692;2023-07-22T13:01:37;17.90;99.90
53752;DHT22;41095;53.090;6.692;2023-07-22T13:04:04;18.00;99.90
53752;DHT22;41095;53.090;6.692;2023-07-22T13:06:31;18.00;99.90
53752;DHT22;41095;53.090;6.692;2023-07-22T13:08:56;18.00;99.90
53752;DHT22;41095;53.090;6.692;2023-07-22T13:11:22;17.90;99.90
53752;DHT22;41095;53.090;6.692;2023-07-22T13:13:48;18.00;99.90
53752;DHT22;41095;53.090;6.692;2023-07-22T13:16:13;18.00;99.90
53752;DHT22;41095;53.090;6.692;2023-07-22T13:18:39;18.00;99.90
53752;DHT22;41095;53.090;6.692;2023-07-22T13:21:05;17.90;99.90
53752;DHT22;41095;53.090;6.692;2023-07-22T13:23:30;17.80;99.90
53752;DHT22;41095;53.090;6.692;2023-07-22T13:25:56;17.70;99.90
53752;DHT22;41095;53.090;6.692;2023-07-22T13:28:22;17.60;99.90
53752;DHT22;41095;53.090;6.692;2023-07-22T13:30:47;17.50;99.90
53752;DHT22;41095;53.090;6.692;2023-07-22T13:33:13;17.50;99.90
53752;DHT22;41095;53.090;6.692;2023-07-22T13:35:39;17.50;99.90
53752;DHT22;41095;53.090;6.692;2023-07-22T13:38:04;17.40;99.90
53752;DHT22;41095;53.090;6.692;2023-07-22T13:40:30;17.40;99.90
53752;DHT22;41095;53.090;6.692;2023-07-22T13:42:56;17.40;99.90
53752;DHT22;41095;53.090;6.692;2023-07-22T13:45:21;17.50;99.90
53752;DHT22;41095;53.090;6.692;2023-07-22T13:47:47;17.50;99.90
53752;DHT22;41095;53.090;6.692;2023-07-22T13:50:13;17.50;99.90
53752;DHT22;41095;53.090;6.692;2023-07-22T13:52:38;17.50;99.90
53752;DHT22;41095;53.090;6.692;2023-07-22T13:55:06;17.50;99.90
53752;DHT22;41095;53.090;6.692;2023-07-22T13:57:32;17.50;99.90
53752;DHT22;41095;53.090;6.692;2023-07-22T13:59:58;17.60;99.90
53752;DHT22;41095;53.090;6.692;2023-07-22T14:02:23;17.80;99.90
53752;DHT22;41095;53.090;6.692;2023-07-22T14:04:49;18.00;99.90
53752;DHT22;41095;53.090;6.692;2023-07-22T14:07:15;18.10;99.90
53752;DHT22;41095;53.090;6.692;2023-07-22T14:09:41;18.30;99.90
53752;DHT22;41095;53.090;6.692;2023-07-22T14:12:07;18.40;99.90
53752;DHT22;41095;53.090;6.692;2023-07-22T14:14:33;18.50;99.90
53752;DHT22;41095;53.090;6.692;2023-07-22T14:16:58;18.70;99.90
53752;DHT22;41095;53.090;6.692;2023-07-22T14:19:24;18.90;99.90
53752;DHT22;41095;53.090;6.692;2023-07-22T14:21:50;19.00;99.90
53752;DHT22;41095;53.090;6.692;2023-07-22T14:24:15;19.00;99.90
53752;DHT22;41095;53.090;6.692;2023-07-22T14:26:41;19.00;99.90
53752;DHT22;41095;53.090;6.692;2023-07-22T14:29:07;18.90;99.90
53752;DHT22;41095;53.090;6.692;2023-07-22T14:31:33;18.90;99.90
53752;DHT22;41095;53.090;6.692;2023-07-22T14:33:59;18.80;99.90
53752;DHT22;41095;53.090;6.692;2023-07-22T14:36:24;18.70;99.90
53752;DHT22;41095;53.090;6.692;2023-07-22T14:38:50;18.80;99.90
53752;DHT22;41095;53.090;6.692;2023-07-22T14:41:16;18.80;99.90
53752;DHT22;41095;53.090;6.692;2023-07-22T14:43:41;18.80;99.90
53752;DHT22;41095;53.090;6.692;2023-07-22T14:46:07;18.80;99.90
53752;DHT22;41095;53.090;6.692;2023-07-22T14:48:33;18.70;99.90
53752;DHT22;41095;53.090;6.692;2023-07-22T14:50:59;18.70;99.90
53752;DHT22;41095;53.090;6.692;2023-07-22T14:53:24;18.70;99.90
53752;DHT22;41095;53.090;6.692;2023-07-22T14:55:50;18.80;99.90
53752;DHT22;41095;53.090;6.692;2023-07-22T14:58:15;19.10;99.90
53752;DHT22;41095;53.090;6.692;2023-07-22T15:00:41;19.40;99.90
53752;DHT22;41095;53.090;6.692;2023-07-22T15:03:07;19.50;99.90
53752;DHT22;41095;53.090;6.692;2023-07-22T15:05:33;19.50;99.90
53752;DHT22;41095;53.090;6.692;2023-07-22T15:07:58;19.40;99.90
53752;DHT22;41095;53.090;6.692;2023-07-22T15:10:24;19.30;99.90
53752;DHT22;41095;53.090;6.692;2023-07-22T15:12:50;19.30;99.90
53752;DHT22;41095;53.090;6.692;2023-07-22T15:15:15;19.30;99.90
53752;DHT22;41095;53.090;6.692;2023-07-22T15:17:41;19.20;99.90
53752;DHT22;41095;53.090;6.692;2023-07-22T15:20:07;19.20;99.90
53752;DHT22;41095;53.090;6.692;2023-07-22T15:22:33;19.10;99.90
53752;DHT22;41095;53.090;6.692;2023-07-22T15:24:59;19.20;99.90
53752;DHT22;41095;53.090;6.692;2023-07-22T15:27:24;19.10;99.90
53752;DHT22;41095;53.090;6.692;2023-07-22T15:29:50;19.10;99.90
53752;DHT22;41095;53.090;6.692;2023-07-22T15:32:16;19.00;99.90
53752;DHT22;41095;53.090;6.692;2023-07-22T15:34:41;18.80;99.90
53752;DHT22;41095;53.090;6.692;2023-07-22T15:37:07;18.70;99.90
53752;DHT22;41095;53.090;6.692;2023-07-22T15:39:33;18.60;99.90
53752;DHT22;41095;53.090;6.692;2023-07-22T15:42:00;18.40;99.90
53752;DHT22;41095;53.090;6.692;2023-07-22T15:44:25;18.20;99.90